Time;durP1;ratioP1;P1;durP2;ratioP2;P2;SDS_P1;SDS_P2;PMS_P1;PMS_P2;Temp;Humidity;BMP_temperature;BMP_pressure;BME280_temperature;BME280_humidity;BME280_pressure;Samples;Min_cycle;Max_cycle;Signal;HPM_P1;HPM_P2
2021/08/25 00:01:06;;;;;;;17.50;5.40;;;;;;;11.30;78.71;99332.54;112258;1204;106398;-76
2021/08/25 00:03:35;;;;;;;20.40;7.50;;;;;;;11.29;78.74;99330.66;112274;1196;97834;-76
2021/08/25 00:06:03;;;;;;;18.00;5.00;;;;;;;11.29;78.70;99330.52;112282;1196;97693;-75
2021/08/25 00:08:31;;;;;;;17.10;6.20;;;;;;;11.27;78.69;99329.77;112266;1204;111060;-74
2021/08/25 00:10:58;;;;;;;18.00;5.90;;;;;;;11.25;78.73;99329.88;112297;1204;96392;-76
2021/08/25 00:13:26;;;;;;;16.50;5.70;;;;;;;11.24;78.79;99331.04;112233;1204;107454;-75
2021/08/25 00:15:55;;;;;;;20.30;5.30;;;;;;;11.24;78.84;99331.73;112259;1196;96053;-76
2021/08/25 00:18:24;;;;;;;21.30;5.80;;;;;;;11.25;78.79;99334.69;112303;1197;97548;-75
2021/08/25 00:20:53;;;;;;;18.40;5.30;;;;;;;11.26;78.82;99329.69;112249;1197;110761;-77
2021/08/25 00:23:21;;;;;;;18.50;6.30;;;;;;;11.26;78.66;99330.21;112304;1204;97599;-78
2021/08/25 00:25:48;;;;;;;15.10;5.60;;;;;;;11.25;78.73;99329.05;112243;1204;107273;-76
2021/08/25 00:28:19;;;;;;;17.00;6.10;;;;;;;11.25;78.72;99325.45;112282;1204;97564;-76
2021/08/25 00:30:49;;;;;;;16.20;5.40;;;;;;;11.26;78.70;99323.26;112256;1197;97809;-76
2021/08/25 00:33:18;;;;;;;21.20;6.40;;;;;;;11.27;78.69;99321.61;112251;1196;111152;-78
2021/08/25 00:35:46;;;;;;;19.90;5.70;;;;;;;11.26;78.66;99322.54;112273;1204;97584;-78
2021/08/25 00:38:13;;;;;;;18.60;6.30;;;;;;;11.25;78.59;99320.34;112268;1204;107433;-78
2021/08/25 00:40:43;;;;;;;19.30;5.90;;;;;;;11.23;78.59;99319.07;112273;1198;97522;-74
2021/08/25 00:43:12;;;;;;;17.30;5.90;;;;;;;11.20;78.61;99317.84;112271;1204;97683;-76
2021/08/25 00:45:44;;;;;;;18.30;5.90;;;;;;;11.19;78.63;99320.98;112293;1204;111277;-77
2021/08/25 00:48:16;;;;;;;18.80;6.10;;;;;;;11.17;78.68;99316.83;112301;1204;97693;-76
2021/08/25 00:50:56;;;;;;;19.00;6.20;;;;;;;11.16;78.60;99321.31;112276;1204;107659;-74
2021/08/25 00:53:24;;;;;;;21.30;6.10;;;;;;;11.16;78.64;99321.14;112244;1204;97715;-74
2021/08/25 00:56:07;;;;;;;16.70;6.00;;;;;;;11.15;78.64;99319.94;112266;1203;97582;-74
2021/08/25 00:58:42;;;;;;;16.90;5.70;;;;;;;11.16;78.63;99322.56;112266;1203;110943;-75
2021/08/25 01:01:50;;;;;;;17.50;6.10;;;;;;;11.16;78.70;99324.86;112279;1197;97518;-75
2021/08/25 01:04:25;;;;;;;19.90;6.80;;;;;;;11.18;78.69;99322.96;112130;1204;107461;-74
2021/08/25 01:06:54;;;;;;;22.20;6.70;;;;;;;11.20;78.62;99320.71;112249;1204;97575;-74
2021/08/25 01:09:22;;;;;;;18.20;6.00;;;;;;;11.21;78.60;99317.81;112290;1198;97592;-75
2021/08/25 01:11:52;;;;;;;17.10;5.70;;;;;;;11.20;78.53;99318.95;112256;1204;110622;-74
2021/08/25 01:14:21;;;;;;;18.10;6.20;;;;;;;11.20;78.71;99318.57;112230;1204;95012;-75
2021/08/25 01:16:51;;;;;;;22.00;6.80;;;;;;;11.20;78.59;99317.17;112263;1204;107433;-75
2021/08/25 01:19:21;;;;;;;16.00;5.40;;;;;;;11.20;78.61;99315.56;112294;1197;97748;-73
2021/08/25 01:21:50;;;;;;;23.30;6.00;;;;;;;11.19;78.62;99312.43;112291;1196;96850;-73
2021/08/25 01:24:19;;;;;;;21.20;5.90;;;;;;;11.16;78.60;99313.88;112272;1204;111119;-74
2021/08/25 01:26:51;;;;;;;17.60;5.70;;;;;;;11.13;78.60;99310.19;112314;1203;96858;-74
2021/08/25 01:29:24;;;;;;;17.50;5.40;;;;;;;11.11;78.55;99308.02;112278;1204;107419;-74
2021/08/25 01:31:53;;;;;;;;;;;;;;;11.08;78.62;99303.79;112296;1196;97598;-75
2021/08/25 01:34:21;;;;;;;16.70;5.20;;;;;;;11.07;78.72;99299.27;112283;1198;98296;-76
2021/08/25 01:36:50;;;;;;;18.90;5.80;;;;;;;11.07;78.66;99296.95;112262;1204;111120;-75
2021/08/25 01:39:19;;;;;;;20.40;6.50;;;;;;;11.07;78.68;99297.45;112262;1204;98004;-73
2021/08/25 01:41:48;;;;;;;15.60;5.40;;;;;;;11.07;78.67;99297.48;112232;1204;107455;-73
2021/08/25 01:44:16;;;;;;;19.30;6.00;;;;;;;11.05;78.62;99296.88;112248;1195;97582;-74
2021/08/25 01:46:45;;;;;;;14.80;5.10;;;;;;;11.05;78.66;99298.48;112267;1197;97651;-74
2021/08/25 01:49:14;;;;;;;18.20;5.30;;;;;;;11.04;78.60;99295.55;112283;1203;111109;-75
2021/08/25 01:51:42;;;;;;;18.10;5.90;;;;;;;11.01;78.57;99298.94;112313;1203;97481;-75
2021/08/25 01:54:11;;;;;;;16.00;5.50;;;;;;;10.98;78.69;99296.11;112316;1196;107497;-73
2021/08/25 01:56:40;;;;;;;16.40;5.60;;;;;;;10.96;78.67;99296.45;112272;1203;97706;-73
2021/08/25 01:59:09;;;;;;;15.60;5.00;;;;;;;10.96;78.75;99294.52;112300;1196;97788;-74
2021/08/25 02:01:36;;;;;;;17.10;5.60;;;;;;;10.94;78.66;99290.39;112214;1196;111175;-75
2021/08/25 02:04:05;;;;;;;16.10;5.50;;;;;;;10.93;78.67;99291.20;112258;1203;98040;-74
2021/08/25 02:06:33;;;;;;;16.30;5.70;;;;;;;10.90;78.76;99294.38;112276;1203;107453;-75
2021/08/25 02:09:01;;;;;;;15.10;5.80;;;;;;;10.89;78.58;99291.98;112244;1197;97643;-74
2021/08/25 02:11:28;;;;;;;17.70;6.00;;;;;;;10.89;78.59;99289.70;112269;1198;97607;-74
2021/08/25 02:13:56;;;;;;;17.50;6.00;;;;;;;10.89;78.65;99287.59;112240;1196;110802;-73
2021/08/25 02:16:24;;;;;;;16.90;5.40;;;;;;;10.88;78.66;99285.32;112291;1203;94960;-74
2021/08/25 02:18:52;;;;;;;16.30;5.80;;;;;;;10.87;78.69;99286.80;112270;1204;107271;-74
2021/08/25 02:21:22;;;;;;;15.80;5.60;;;;;;;10.87;78.74;99282.89;112273;1203;97582;-73
2021/08/25 02:23:50;;;;;;;17.10;5.50;;;;;;;10.86;78.75;99282.23;112284;1196;95094;-74
2021/08/25 02:26:18;;;;;;;16.20;5.40;;;;;;;10.86;78.67;99286.84;112284;1204;111179;-74
2021/08/25 02:28:48;;;;;;;16.70;5.50;;;;;;;10.85;78.66;99286.91;112398;1195;96180;-74
2021/08/25 02:31:18;;;;;;;17.10;5.30;;;;;;;10.84;78.69;99286.63;112466;1203;107430;-73
2021/08/25 02:33:46;;;;;;;16.20;6.20;;;;;;;10.85;78.78;99285.89;112471;1195;96367;-74
2021/08/25 02:36:16;;;;;;;16.60;6.20;;;;;;;10.84;78.76;99287.53;112424;1195;97642;-74
2021/08/25 02:38:45;;;;;;;13.50;5.20;;;;;;;10.84;78.75;99289.48;112444;1203;111574;-75
2021/08/25 02:41:15;;;;;;;18.40;6.50;;;;;;;10.84;78.72;99287.52;112507;1198;97658;-75
2021/08/25 02:43:43;;;;;;;16.30;5.50;;;;;;;10.84;78.71;99284.00;112473;1203;107454;-76
2021/08/25 02:46:11;;;;;;;18.90;5.90;;;;;;;10.84;78.76;99288.25;112435;1203;97654;-75
2021/08/25 02:48:40;;;;;;;16.70;5.80;;;;;;;10.83;78.73;99286.40;112268;1195;96440;-75
2021/08/25 02:51:08;;;;;;;16.70;5.50;;;;;;;10.80;78.71;99290.66;112494;1203;111080;-74
2021/08/25 02:53:36;;;;;;;16.10;6.00;;;;;;;10.78;78.68;99289.73;112228;1197;98383;-75
2021/08/25 02:56:04;;;;;;;18.60;5.30;;;;;;;10.79;78.71;99292.35;112185;1204;107458;-74
2021/08/25 02:58:32;;;;;;;18.50;6.40;;;;;;;10.80;78.73;99294.08;112258;1197;97636;-75
2021/08/25 03:00:59;;;;;;;17.80;5.80;;;;;;;10.78;78.61;99290.48;112284;1198;95037;-74
2021/08/25 03:03:28;;;;;;;17.30;6.30;;;;;;;10.76;78.71;99291.98;112259;1204;111178;-74
2021/08/25 03:05:57;;;;;;;15.70;5.30;;;;;;;10.76;78.78;99292.02;112232;1197;97676;-76
2021/08/25 03:08:25;;;;;;;16.70;5.90;;;;;;;10.75;78.72;99291.02;112262;1204;107867;-74
2021/08/25 03:10:53;;;;;;;19.10;6.40;;;;;;;10.75;78.82;99293.52;112253;1197;95146;-75
2021/08/25 03:13:20;;;;;;;16.70;6.20;;;;;;;10.75;78.68;99290.84;112435;1196;97583;-74
2021/08/25 03:15:48;;;;;;;18.10;6.30;;;;;;;10.74;78.70;99287.18;112391;1203;109059;-76
2021/08/25 03:18:16;;;;;;;19.10;6.20;;;;;;;10.73;78.72;99284.23;112464;1195;97595;-76
2021/08/25 03:20:44;;;;;;;17.40;5.80;;;;;;;10.72;78.72;99278.65;112408;1203;107564;-74
2021/08/25 03:23:12;;;;;;;17.30;6.40;;;;;;;10.71;78.75;99276.20;112436;1203;97578;-76
2021/08/25 03:25:40;;;;;;;16.70;5.90;;;;;;;10.71;78.61;99271.45;112510;1203;97671;-74
2021/08/25 03:28:08;;;;;;;18.10;6.20;;;;;;;10.70;78.78;99271.69;112448;1203;111098;-76
2021/08/25 03:30:36;;;;;;;18.30;6.30;;;;;;;10.69;78.84;99270.14;112434;1195;96425;-74
2021/08/25 03:33:05;;;;;;;18.10;5.90;;;;;;;10.69;78.75;99269.27;112472;1204;107484;-74
2021/08/25 03:35:33;;;;;;;21.10;6.60;;;;;;;10.68;78.84;99270.17;112501;1203;95107;-74
2021/08/25 03:38:01;;;;;;;19.50;6.70;;;;;;;10.69;78.80;99272.81;112433;1203;97554;-74
2021/08/25 03:40:29;;;;;;;20.80;6.70;;;;;;;10.68;78.80;99274.30;112394;1195;111222;-73
2021/08/25 03:42:58;;;;;;;19.40;6.60;;;;;;;10.67;78.78;99273.27;112238;1197;97864;-74
2021/08/25 03:45:25;;;;;;;17.40;6.40;;;;;;;10.67;78.79;99270.09;112348;1203;107407;-74
2021/08/25 03:47:53;;;;;;;20.40;7.10;;;;;;;10.68;78.77;99268.46;112227;1197;97661;-76
2021/08/25 03:50:21;;;;;;;17.00;5.90;;;;;;;10.67;78.74;99261.02;112223;1196;97671;-75
2021/08/25 03:52:49;;;;;;;18.10;7.20;;;;;;;10.68;78.78;99265.23;112277;1203;110668;-72
2021/08/25 03:55:17;;;;;;;21.70;6.40;;;;;;;10.67;78.86;99266.35;112461;1198;97545;-74
2021/08/25 03:57:45;;;;;;;19.40;6.10;;;;;;;10.67;78.75;99266.55;112223;1203;106508;-73
2021/08/25 04:00:15;;;;;;;20.30;6.90;;;;;;;10.66;78.73;99266.98;112259;1197;97692;-74
2021/08/25 04:02:43;;;;;;;19.40;6.50;;;;;;;10.65;78.68;99267.39;112257;1204;94937;-76
2021/08/25 04:05:11;;;;;;;23.20;6.90;;;;;;;10.65;78.80;99264.95;112194;1204;111220;-76
2021/08/25 04:07:39;;;;;;;17.80;6.50;;;;;;;10.65;78.83;99265.45;112271;1198;97561;-77
2021/08/25 04:10:07;;;;;;;18.60;6.80;;;;;;;10.65;78.76;99265.13;112276;1203;107380;-77
2021/08/25 04:12:35;;;;;;;22.70;7.10;;;;;;;10.64;78.85;99266.94;112241;1195;97552;-75
2021/08/25 04:15:05;;;;;;;21.70;7.60;;;;;;;10.64;78.79;99268.02;112316;1197;95023;-85
2021/08/25 04:17:33;;;;;;;18.90;6.90;;;;;;;10.66;78.79;99271.26;112362;1198;111712;-85
2021/08/25 04:20:01;;;;;;;20.20;7.50;;;;;;;10.66;78.77;99271.06;112382;1203;97939;-85
2021/08/25 04:22:30;;;;;;;19.90;7.00;;;;;;;10.64;78.75;99271.39;112225;1204;107377;-82
2021/08/25 04:24:58;;;;;;;18.80;7.00;;;;;;;10.63;78.68;99268.77;112344;1198;97667;-82
2021/08/25 04:27:25;;;;;;;20.90;7.80;;;;;;;10.62;78.66;99268.86;112421;1196;97578;-81
2021/08/25 04:29:53;;;;;;;20.90;7.00;;;;;;;10.60;78.72;99267.05;112186;1203;109710;-83
2021/08/25 04:32:21;;;;;;;19.60;7.30;;;;;;;10.59;78.62;99267.48;112466;1195;97722;-82
2021/08/25 04:34:49;;;;;;;21.50;7.10;;;;;;;10.56;78.66;99265.00;112535;1203;106686;-82
2021/08/25 04:37:21;;;;;;;18.60;6.30;;;;;;;10.53;78.51;99262.56;112459;1196;97652;-83
2021/08/25 04:39:49;;;;;;;20.80;7.20;;;;;;;10.51;78.68;99263.55;112472;1200;97563;-84
2021/08/25 04:42:16;;;;;;;20.40;7.00;;;;;;;10.50;78.66;99259.54;112483;1204;111031;-84
2021/08/25 04:44:44;;;;;;;19.60;6.80;;;;;;;10.52;78.71;99263.86;112276;1203;97418;-86
2021/08/25 04:47:12;;;;;;;19.50;6.90;;;;;;;10.53;78.64;99261.52;112404;1203;107381;-83
2021/08/25 04:49:40;;;;;;;18.40;6.10;;;;;;;10.54;78.76;99262.45;112396;1197;97672;-84
2021/08/25 04:52:09;;;;;;;24.20;7.90;;;;;;;10.56;78.70;99261.25;112331;1197;98384;-86
2021/08/25 04:54:40;;;;;;;22.90;7.10;;;;;;;10.58;78.66;99260.08;112372;1198;111193;-90
2021/08/25 04:57:08;;;;;;;21.20;7.50;;;;;;;10.59;78.67;99262.33;112368;1198;97544;-88
2021/08/25 04:59:36;;;;;;;20.00;6.80;;;;;;;10.62;78.71;99261.95;112368;1198;107432;-88
2021/08/25 05:02:04;;;;;;;23.30;6.80;;;;;;;10.65;78.70;99266.52;112411;1195;97668;-78
2021/08/25 05:04:32;;;;;;;21.40;7.10;;;;;;;10.68;78.70;99266.80;112160;1195;97603;-81
2021/08/25 05:07:00;;;;;;;20.90;7.10;;;;;;;10.71;78.61;99269.79;112201;1204;111257;-80
2021/08/25 05:09:28;;;;;;;20.40;7.30;;;;;;;10.71;78.51;99266.06;112268;1204;97583;-78
2021/08/25 05:11:56;;;;;;;22.10;7.40;;;;;;;10.70;78.49;99264.39;112315;1204;107491;-78
2021/08/25 05:14:24;;;;;;;23.70;7.90;;;;;;;10.70;78.49;99264.55;112233;1198;97659;-77
2021/08/25 05:16:52;;;;;;;19.00;7.50;;;;;;;10.71;78.55;99266.11;112258;1204;97581;-76
2021/08/25 05:19:20;;;;;;;19.50;7.70;;;;;;;10.70;78.58;99266.53;112277;1195;110978;-78
2021/08/25 05:21:48;;;;;;;22.30;7.00;;;;;;;10.70;78.60;99266.00;112238;1197;98356;-78
2021/08/25 05:24:16;;;;;;;18.60;6.60;;;;;;;10.70;78.52;99269.88;112168;1203;107394;-76
2021/08/25 05:26:48;;;;;;;23.00;7.20;;;;;;;10.68;78.45;99264.88;112275;1203;97589;-80
2021/08/25 05:29:16;;;;;;;24.70;7.90;;;;;;;10.65;78.46;99264.89;112288;1195;97615;-78
2021/08/25 05:31:43;;;;;;;22.10;8.20;;;;;;;10.64;78.46;99259.86;112160;1198;111160;-77
2021/08/25 05:34:12;;;;;;;21.40;7.70;;;;;;;10.61;78.42;99260.42;112281;1204;97570;-78
2021/08/25 05:36:40;;;;;;;21.10;7.30;;;;;;;10.61;78.53;99257.06;112271;1204;107491;-79
2021/08/25 05:39:08;;;;;;;22.50;8.00;;;;;;;10.62;78.52;99253.80;112251;1198;97650;-80
2021/08/25 05:41:35;;;;;;;22.80;7.90;;;;;;;10.62;78.58;99250.39;112248;1204;97571;-77
2021/08/25 05:44:04;;;;;;;21.50;7.40;;;;;;;10.64;78.51;99254.34;112240;1198;110305;-77
2021/08/25 05:46:32;;;;;;;20.00;7.60;;;;;;;10.64;78.45;99253.99;112277;1200;95682;-77
2021/08/25 05:49:01;;;;;;;29.00;8.50;;;;;;;10.65;78.43;99253.55;112264;1198;107406;-77
2021/08/25 05:51:29;;;;;;;22.50;7.60;;;;;;;10.65;78.40;99263.84;112302;1199;97609;-77
2021/08/25 05:53:57;;;;;;;22.70;7.30;;;;;;;10.67;78.43;99264.95;112303;1204;97646;-77
2021/08/25 05:56:24;;;;;;;22.50;8.40;;;;;;;10.71;78.48;99264.35;112305;1204;110808;-77
2021/08/25 05:58:52;;;;;;;22.70;7.80;;;;;;;10.73;78.42;99262.40;112341;1204;97649;-77
2021/08/25 06:01:20;;;;;;;22.70;7.60;;;;;;;10.77;78.48;99267.69;112305;1198;107387;-78
2021/08/25 06:03:49;;;;;;;20.10;7.10;;;;;;;10.80;78.37;99268.82;112276;1196;94967;-75
2021/08/25 06:06:17;;;;;;;21.10;7.70;;;;;;;10.86;78.40;99270.55;112312;1204;97743;-77
2021/08/25 06:08:45;;;;;;;20.00;7.20;;;;;;;10.94;78.40;99274.65;112419;1203;111871;-76
2021/08/25 06:11:12;;;;;;;23.40;8.10;;;;;;;11.01;78.41;99273.00;112438;1204;97629;-78
2021/08/25 06:13:41;;;;;;;22.80;8.00;;;;;;;11.10;78.39;99270.11;112317;1203;107454;-78
2021/08/25 06:16:08;;;;;;;17.00;6.40;;;;;;;11.19;78.39;99270.89;112259;1197;98175;-76
2021/08/25 06:18:37;;;;;;;21.40;7.50;;;;;;;11.24;78.18;99271.63;112305;1204;97682;-77
2021/08/25 06:21:05;;;;;;;23.70;7.70;;;;;;;11.28;78.33;99276.98;112269;1204;111136;-77
2021/08/25 06:23:33;;;;;;;21.10;7.60;;;;;;;11.35;78.28;99275.79;112307;1204;97539;-77
2021/08/25 06:26:01;;;;;;;21.70;8.40;;;;;;;11.39;78.25;99272.80;112237;1204;107960;-77
2021/08/25 06:28:28;;;;;;;21.10;7.70;;;;;;;11.46;78.18;99276.21;112279;1204;97587;-78
2021/08/25 06:30:56;;;;;;;21.80;8.30;;;;;;;11.53;78.33;99274.33;112294;1199;94956;-77
2021/08/25 06:33:24;;;;;;;24.10;8.60;;;;;;;11.59;78.32;99274.41;112205;1204;111166;-77
2021/08/25 06:35:52;;;;;;;19.80;7.10;;;;;;;11.62;78.22;99281.05;112238;1204;97606;-76
2021/08/25 06:38:21;;;;;;;22.60;8.30;;;;;;;11.64;78.21;99282.41;112233;1204;107391;-76
2021/08/25 06:40:49;;;;;;;23.30;7.80;;;;;;;11.67;78.24;99283.27;112273;1203;97645;-76
2021/08/25 06:43:17;;;;;;;20.00;7.40;;;;;;;11.72;78.19;99277.86;112279;1198;97664;-76
2021/08/25 06:45:44;;;;;;;21.20;7.60;;;;;;;11.74;78.19;99267.63;112289;1204;111527;-76
2021/08/25 06:48:13;;;;;;;24.90;9.00;;;;;;;11.76;78.29;99267.99;112294;1204;97645;-78
2021/08/25 06:50:40;;;;;;;20.20;7.60;;;;;;;11.83;78.26;99266.79;112292;1204;106392;-78
2021/08/25 06:53:09;;;;;;;24.50;8.00;;;;;;;11.88;78.10;99257.83;112311;1204;95997;-77
2021/08/25 06:55:39;;;;;;;22.10;7.70;;;;;;;11.90;78.11;99251.84;112345;1196;98142;-78
2021/08/25 06:58:07;;;;;;;18.80;7.00;;;;;;;11.92;78.10;99255.58;112286;1204;111249;-81
2021/08/25 07:00:35;;;;;;;20.90;7.40;;;;;;;11.94;78.03;99257.83;112267;1204;97648;-77
2021/08/25 07:03:03;;;;;;;21.20;7.00;;;;;;;11.93;78.00;99258.08;112208;1200;107508;-77
2021/08/25 07:05:31;;;;;;;18.90;6.80;;;;;;;11.92;78.09;99260.59;112287;1200;97651;-78
2021/08/25 07:08:00;;;;;;;19.50;7.60;;;;;;;11.96;78.11;99262.94;112277;1200;95129;-77
2021/08/25 07:10:28;;;;;;;22.00;8.10;;;;;;;12.05;78.13;99262.09;112239;1205;111086;-77
2021/08/25 07:12:56;;;;;;;20.80;7.90;;;;;;;12.13;78.18;99260.82;112398;1205;97663;-74
2021/08/25 07:15:24;;;;;;;22.20;7.30;;;;;;;12.24;78.21;99262.10;112282;1204;107582;-76
2021/08/25 07:17:52;;;;;;;19.10;7.50;;;;;;;12.61;77.86;99253.42;112234;1199;97695;-77
2021/08/25 07:20:40;;;;;;;19.70;6.60;;;;;;;13.88;75.67;99246.98;112261;1204;97654;-75
2021/08/25 07:23:08;;;;;;;21.10;7.10;;;;;;;15.41;74.73;99241.38;112331;1204;111143;-76
2021/08/25 07:25:36;;;;;;;21.00;7.80;;;;;;;17.10;73.82;99237.86;112294;1205;97679;-75
2021/08/25 07:28:07;;;;;;;19.30;7.30;;;;;;;18.79;72.88;99242.95;112278;1205;107469;-76
2021/08/25 07:30:35;;;;;;;17.90;7.80;;;;;;;20.21;72.37;99242.83;112245;1204;97801;-76
2021/08/25 07:33:03;;;;;;;18.80;7.40;;;;;;;21.55;72.43;99231.52;112313;1200;97674;-76
2021/08/25 07:35:31;;;;;;;18.20;7.40;;;;;;;22.77;71.66;99230.96;112360;1204;111144;-74
2021/08/25 07:37:59;;;;;;;21.40;7.70;;;;;;;23.86;71.20;99231.70;112252;1203;97756;-77
2021/08/25 07:40:27;;;;;;;18.20;7.10;;;;;;;24.92;70.78;99229.66;112335;1203;107377;-76
2021/08/25 07:42:55;;;;;;;20.40;7.70;;;;;;;25.89;70.49;99223.13;112198;1203;96862;-77
2021/08/25 07:45:23;;;;;;;19.50;7.50;;;;;;;26.72;70.28;99225.55;112391;1195;95032;-77
2021/08/25 07:47:51;;;;;;;17.30;7.60;;;;;;;27.50;69.98;99225.47;112300;1204;111140;-77
2021/08/25 07:50:19;;;;;;;17.10;7.80;;;;;;;28.14;69.45;99221.27;112310;1204;97626;-77
2021/08/25 07:52:47;;;;;;;19.50;7.40;;;;;;;28.73;68.86;99224.23;112379;1205;108800;-78
2021/08/25 07:55:16;;;;;;;23.80;7.90;;;;;;;29.14;68.94;99227.77;112381;1203;95394;-78
2021/08/25 07:57:44;;;;;;;19.40;7.60;;;;;;;29.40;68.83;99219.55;112370;1200;97558;-75
2021/08/25 08:00:12;;;;;;;18.30;8.20;;;;;;;30.02;68.24;99209.52;112360;1208;110978;-78
2021/08/25 08:02:40;;;;;;;15.40;6.90;;;;;;;30.38;67.58;99212.29;112354;1203;98062;-77
2021/08/25 08:05:09;;;;;;;19.00;7.70;;;;;;;30.27;67.18;99208.85;112398;1204;99807;-76
2021/08/25 08:07:38;;;;;;;18.50;7.90;;;;;;;30.56;67.30;99205.36;112377;1204;97595;-78
2021/08/25 08:10:07;;;;;;;19.40;8.10;;;;;;;30.85;66.57;99203.86;112371;1198;97564;-77
2021/08/25 08:12:34;;;;;;;14.60;7.50;;;;;;;31.21;67.11;99204.51;112321;1204;111805;-76
2021/08/25 08:15:04;;;;;;;15.80;7.80;;;;;;;31.47;66.54;99207.52;112428;1205;95419;-76
2021/08/25 08:17:34;;;;;;;18.70;8.10;;;;;;;31.53;66.70;99208.80;112383;1203;98843;-75
2021/08/25 08:20:03;;;;;;;18.80;7.70;;;;;;;31.56;65.93;99207.31;112351;1204;97981;-75
2021/08/25 08:22:31;;;;;;;18.70;7.70;;;;;;;31.65;65.73;99207.69;112438;1195;98325;-77
2021/08/25 08:24:59;;;;;;;15.00;7.10;;;;;;;31.78;65.35;99204.80;112359;1205;102674;-77
2021/08/25 08:27:27;;;;;;;26.80;7.60;;;;;;;31.80;64.94;99198.78;112381;1205;98042;-76
2021/08/25 08:29:55;;;;;;;15.70;7.90;;;;;;;31.86;65.18;99200.28;112410;1203;98790;-78
2021/08/25 08:32:23;;;;;;;15.50;7.00;;;;;;;31.83;64.75;99203.63;112342;1205;95128;-76
2021/08/25 08:34:50;;;;;;;16.80;7.40;;;;;;;31.80;64.20;99206.43;112424;1204;95046;-76
2021/08/25 08:37:18;;;;;;;15.40;7.40;;;;;;;31.65;63.94;99204.45;112389;1203;102582;-76
2021/08/25 08:39:46;;;;;;;17.30;7.20;;;;;;;31.49;62.88;99198.60;112387;1204;97500;-75
2021/08/25 08:42:31;;;;;;;16.40;7.40;;;;;;;30.54;62.60;99193.63;112356;1204;98801;-76
2021/08/25 08:45:02;;;;;;;14.80;7.10;;;;;;;30.20;62.88;99190.80;112354;1204;97582;-77
2021/08/25 08:47:31;;;;;;;16.80;7.40;;;;;;;30.27;62.33;99187.25;112403;1205;95026;-77
2021/08/25 08:50:01;;;;;;;18.20;7.90;;;;;;;29.81;63.00;99183.36;112402;1204;111132;-76
2021/08/25 08:52:28;;;;;;;16.70;7.40;;;;;;;29.68;62.21;99183.98;112433;1196;95424;-78
2021/08/25 08:54:59;;;;;;;17.80;7.70;;;;;;;29.73;62.07;99182.02;112317;1205;107482;-77
2021/08/25 08:57:27;;;;;;;15.50;7.00;;;;;;;29.81;60.54;99178.36;112367;1200;95980;-76
2021/08/25 08:59:55;;;;;;;18.20;7.80;;;;;;;29.83;60.35;99174.54;112399;1200;97580;-77
2021/08/25 09:02:46;;;;;;;16.30;6.70;;;;;;;28.99;59.89;99179.27;112361;1204;110888;-75
2021/08/25 09:05:34;;;;;;;15.20;7.30;;;;;;;28.27;59.81;99180.52;112404;1204;95438;-76
2021/08/25 09:08:05;;;;;;;19.50;7.70;;;;;;;28.32;60.20;99181.24;112340;1203;107861;-75
2021/08/25 09:10:34;;;;;;;17.10;7.70;;;;;;;28.03;59.14;99179.08;112341;1204;97545;-75
2021/08/25 09:13:05;;;;;;;17.20;7.00;;;;;;;28.00;58.94;99177.63;112345;1199;97653;-77
2021/08/25 09:15:42;;;;;;;16.20;6.60;;;;;;;28.10;58.08;99175.99;112369;1196;109866;-76
2021/08/25 09:18:15;;;;;;;17.30;7.20;;;;;;;27.20;58.63;99174.77;112346;1205;95412;-77
2021/08/25 09:20:48;;;;;;;15.40;7.00;;;;;;;26.69;58.24;99169.71;112338;1204;107881;-75
2021/08/25 09:23:18;;;;;;;15.30;7.00;;;;;;;26.74;58.21;99165.77;112312;1198;95054;-76
2021/08/25 09:25:48;;;;;;;15.20;6.70;;;;;;;25.99;57.68;99165.28;112391;1196;97681;-76
2021/08/25 09:28:19;;;;;;;16.50;6.40;;;;;;;25.77;57.31;99165.06;112414;1205;111138;-77
2021/08/25 09:30:55;;;;;;;15.90;6.50;;;;;;;26.03;56.85;99160.33;112369;1204;97868;-77
2021/08/25 09:33:35;;;;;;;15.00;6.30;;;;;;;26.33;55.65;99159.56;112353;1204;107446;-73
2021/08/25 09:36:11;;;;;;;14.30;6.40;;;;;;;26.44;55.74;99157.74;112352;1204;97701;-75
2021/08/25 09:38:50;;;;;;;15.90;6.30;;;;;;;26.01;56.06;99159.75;112401;1205;95067;-76
2021/08/25 09:41:20;;;;;;;19.30;6.80;;;;;;;26.37;55.95;99159.55;112353;1204;111131;-75
2021/08/25 09:43:52;;;;;;;13.90;6.40;;;;;;;26.13;55.82;99160.05;112358;1204;97662;-76
2021/08/25 09:46:26;;;;;;;13.90;6.20;;;;;;;25.54;55.49;99161.39;112351;1205;107481;-76
2021/08/25 09:48:58;;;;;;;16.00;6.10;;;;;;;24.82;55.44;99155.54;112398;1203;97711;-75
2021/08/25 09:51:39;;;;;;;15.80;5.60;;;;;;;24.08;55.39;99161.44;112378;1200;95058;-77
2021/08/25 09:54:08;;;;;;;15.10;6.20;;;;;;;23.40;55.01;99165.91;112341;1204;110801;-78
2021/08/25 09:56:38;;;;;;;16.30;6.50;;;;;;;23.10;54.95;99161.22;112364;1205;97905;-77
2021/08/25 09:59:09;;;;;;;15.70;5.70;;;;;;;22.87;54.96;99155.77;112321;1205;107437;-77
2021/08/25 10:01:38;;;;;;;14.30;6.50;;;;;;;22.89;54.86;99154.27;112301;1195;97647;-77
2021/08/25 10:04:09;;;;;;;14.00;5.30;;;;;;;22.81;54.07;99154.73;112381;1200;95100;-78
2021/08/25 10:06:40;;;;;;;14.80;5.50;;;;;;;22.49;53.93;99156.44;112355;1204;111064;-77
2021/08/25 10:09:10;;;;;;;14.40;5.60;;;;;;;22.19;53.91;99151.66;112389;1204;97632;-76
2021/08/25 10:11:43;;;;;;;13.60;5.20;;;;;;;21.92;53.65;99150.61;112359;1205;107473;-77
2021/08/25 10:14:14;;;;;;;14.80;5.70;;;;;;;21.64;53.65;99151.17;112349;1199;95051;-76
2021/08/25 10:16:51;;;;;;;14.90;5.90;;;;;;;21.29;53.63;99149.36;112384;1204;97580;-76
2021/08/25 10:19:25;;;;;;;17.00;6.70;;;;;;;21.14;53.62;99144.52;112336;1205;111813;-77
2021/08/25 10:22:02;;;;;;;14.20;5.40;;;;;;;21.07;53.54;99142.79;112412;1196;95205;-77
2021/08/25 10:24:48;;;;;;;14.60;5.80;;;;;;;21.04;53.45;99145.98;112374;1204;106808;-79
2021/08/25 10:27:16;;;;;;;16.80;6.20;;;;;;;20.92;53.24;99149.77;112370;1204;97688;-75
2021/08/25 10:30:02;;;;;;;16.80;6.20;;;;;;;20.65;53.11;99147.54;112381;1195;97665;-79
2021/08/25 10:32:50;;;;;;;15.30;5.50;;;;;;;20.32;53.16;99151.05;112361;1200;111091;-75
2021/08/25 10:35:21;;;;;;;17.40;6.10;;;;;;;20.02;52.85;99148.48;112363;1205;95157;-79
2021/08/25 10:37:52;;;;;;;14.90;6.00;;;;;;;19.77;52.99;99147.90;112291;1204;107324;-78
2021/08/25 10:40:34;;;;;;;15.60;5.70;;;;;;;19.60;52.49;99143.58;112280;1204;97701;-78
2021/08/25 10:43:03;;;;;;;13.80;5.80;;;;;;;19.43;52.73;99143.16;112388;1205;96031;-77
2021/08/25 10:45:46;;;;;;;16.90;5.60;;;;;;;19.37;52.75;99139.08;112303;1204;111040;-75
2021/08/25 10:48:14;;;;;;;16.30;6.10;;;;;;;19.36;52.79;99141.00;112296;1204;95031;-77
2021/08/25 10:50:56;;;;;;;15.90;5.60;;;;;;;19.31;52.76;99142.39;112293;1204;107538;-77
2021/08/25 10:53:27;;;;;;;15.40;5.80;;;;;;;19.24;52.71;99140.89;112289;1198;95142;-78
2021/08/25 10:56:04;;;;;;;15.70;6.00;;;;;;;19.14;52.51;99137.27;112333;1196;95076;-76
2021/08/25 10:58:47;;;;;;;16.40;6.00;;;;;;;19.01;52.51;99131.02;112316;1204;111513;-79
2021/08/25 11:01:42;;;;;;;17.90;6.40;;;;;;;18.95;52.62;99127.00;112339;1204;97573;-78
2021/08/25 11:04:22;;;;;;;17.60;5.80;;;;;;;18.94;52.37;99122.81;112338;1203;107456;-75
2021/08/25 11:07:10;;;;;;;16.80;6.20;;;;;;;18.89;52.32;99121.89;112214;1200;95958;-77
2021/08/25 11:09:45;;;;;;;16.60;6.30;;;;;;;18.93;52.30;99116.85;112310;1200;95040;-78
2021/08/25 11:12:20;;;;;;;18.10;7.20;;;;;;;18.93;52.24;99110.34;112290;1197;111106;-77
2021/08/25 11:14:48;;;;;;;17.90;6.90;;;;;;;18.83;52.16;99110.80;112259;1204;97521;-76
2021/08/25 11:17:21;;;;;;;16.40;6.10;;;;;;;18.69;52.03;99110.73;112282;1204;107485;-79
2021/08/25 11:19:49;;;;;;;17.50;6.40;;;;;;;18.58;51.92;99107.56;112336;1200;95458;-78
2021/08/25 11:22:18;;;;;;;18.30;6.30;;;;;;;18.45;51.91;99108.35;112285;1196;98030;-78
2021/08/25 11:24:49;;;;;;;17.20;6.40;;;;;;;18.38;51.99;99103.51;112301;1205;111165;-78
2021/08/25 11:27:22;;;;;;;17.10;6.50;;;;;;;18.36;52.01;99103.77;112314;1208;97581;-77